createdAt,value
2022-11-09T00:01:04.152Z,100.00
2022-11-09T00:03:32.157Z,100.00
2022-11-09T00:06:01.099Z,100.00
2022-11-09T00:08:30.023Z,100.00
2022-11-09T00:11:03.838Z,100.00
2022-11-09T00:13:33.394Z,100.00
2022-11-09T00:16:02.199Z,100.00
2022-11-09T00:18:30.798Z,100.00
2022-11-09T00:20:58.955Z,100.00
2022-11-09T00:23:26.996Z,100.00
2022-11-09T00:25:54.837Z,100.00
2022-11-09T00:28:22.684Z,100.00
2022-11-09T00:30:51.860Z,100.00
2022-11-09T00:33:19.978Z,100.00
2022-11-09T00:35:48.050Z,100.00
2022-11-09T00:38:16.173Z,100.00
2022-11-09T00:40:44.277Z,100.00
2022-11-09T00:43:12.650Z,100.00
2022-11-09T00:45:40.764Z,100.00
2022-11-09T00:48:13.206Z,100.00
2022-11-09T00:50:41.041Z,100.00
2022-11-09T00:53:09.079Z,100.00
2022-11-09T00:55:36.925Z,100.00
2022-11-09T00:58:05.167Z,100.00
2022-11-09T01:00:33.013Z,100.00
2022-11-09T01:03:00.846Z,100.00
2022-11-09T01:05:30.072Z,100.00
2022-11-09T01:07:57.945Z,100.00
2022-11-09T01:10:25.764Z,100.00
2022-11-09T01:12:53.807Z,100.00
2022-11-09T01:15:21.700Z,100.00
2022-11-09T01:17:49.559Z,100.00
2022-11-09T01:20:17.943Z,100.00
2022-11-09T01:22:47.196Z,100.00
2022-11-09T01:25:15.530Z,100.00
2022-11-09T01:27:43.412Z,100.00
2022-11-09T01:30:12.132Z,100.00
2022-11-09T01:32:39.980Z,100.00
2022-11-09T01:35:08.348Z,100.00
2022-11-09T01:37:36.254Z,100.00
2022-11-09T01:40:08.827Z,100.00
2022-11-09T01:42:38.480Z,100.00
2022-11-09T01:45:23.803Z,100.00
2022-11-09T01:47:55.644Z,100.00
2022-11-09T01:50:32.195Z,100.00
2022-11-09T01:53:03.848Z,100.00
2022-11-09T01:55:33.176Z,100.00
2022-11-09T01:58:07.055Z,100.00
2022-11-09T02:00:38.959Z,100.00
2022-11-09T02:03:10.686Z,100.00
2022-11-09T02:05:41.690Z,100.00
2022-11-09T02:08:11.759Z,100.00
2022-11-09T02:10:47.452Z,100.00
2022-11-09T02:13:18.910Z,100.00
2022-11-09T02:15:47.053Z,100.00
2022-11-09T02:18:15.600Z,100.00
2022-11-09T02:20:50.370Z,100.00
2022-11-09T02:23:19.199Z,100.00
2022-11-09T02:25:51.542Z,100.00
2022-11-09T02:28:19.671Z,100.00
2022-11-09T02:30:51.960Z,100.00
2022-11-09T02:33:20.126Z,100.00
2022-11-09T02:35:49.656Z,100.00
2022-11-09T02:38:17.558Z,100.00
2022-11-09T02:40:48.160Z,100.00
2022-11-09T02:43:16.901Z,100.00
2022-11-09T02:45:45.019Z,100.00
2022-11-09T02:48:12.899Z,100.00
2022-11-09T02:50:40.740Z,100.00
2022-11-09T02:53:10.034Z,100.00
2022-11-09T02:55:37.891Z,100.00
2022-11-09T02:58:05.720Z,100.00
2022-11-09T03:00:33.550Z,100.00
2022-11-09T03:03:01.640Z,100.00
2022-11-09T03:05:29.525Z,100.00
2022-11-09T03:07:57.704Z,100.00
2022-11-09T03:10:27.135Z,100.00
2022-11-09T03:12:55.979Z,100.00
2022-11-09T03:15:23.831Z,100.00
2022-11-09T03:17:51.700Z,100.00
2022-11-09T03:20:19.766Z,100.00
2022-11-09T03:22:47.580Z,100.00
2022-11-09T03:25:15.523Z,100.00
2022-11-09T03:27:44.727Z,100.00
2022-11-09T03:30:13.085Z,100.00
2022-11-09T03:32:40.945Z,100.00
2022-11-09T03:35:09.610Z,100.00
2022-11-09T03:37:37.505Z,100.00
2022-11-09T03:40:06.224Z,100.00
2022-11-09T03:42:34.089Z,100.00
2022-11-09T03:45:03.310Z,100.00
2022-11-09T03:47:31.190Z,100.00
2022-11-09T03:49:59.183Z,100.00
2022-11-09T03:52:27.038Z,100.00
2022-11-09T03:54:54.881Z,100.00
2022-11-09T03:57:22.807Z,100.00
2022-11-09T03:59:50.662Z,100.00
2022-11-09T04:02:19.895Z,100.00
2022-11-09T04:04:47.794Z,100.00
2022-11-09T04:07:16.034Z,100.00
2022-11-09T04:09:43.941Z,100.00
2022-11-09T04:12:11.803Z,100.00
2022-11-09T04:14:39.681Z,100.00
2022-11-09T04:17:07.671Z,100.00
2022-11-09T04:19:37.228Z,100.00
2022-11-09T04:22:05.083Z,100.00
2022-11-09T04:24:32.973Z,100.00
2022-11-09T04:27:01.017Z,100.00
2022-11-09T04:29:28.902Z,100.00
2022-11-09T04:31:56.761Z,100.00
2022-11-09T04:34:24.604Z,100.00
2022-11-09T04:36:53.888Z,100.00
2022-11-09T04:39:21.711Z,100.00
2022-11-09T04:41:49.564Z,100.00
2022-11-09T04:44:17.427Z,100.00
2022-11-09T04:46:45.306Z,100.00
2022-11-09T04:49:13.152Z,100.00
2022-11-09T04:51:41.064Z,100.00
2022-11-09T04:54:10.348Z,100.00
2022-11-09T04:56:38.202Z,100.00
2022-11-09T04:59:06.056Z,100.00
2022-11-09T05:01:35.283Z,100.00
2022-11-09T05:04:03.241Z,100.00
2022-11-09T05:06:34.160Z,100.00
2022-11-09T05:09:03.754Z,100.00
2022-11-09T05:11:33.930Z,100.00
2022-11-09T05:14:01.862Z,100.00
2022-11-09T05:16:30.188Z,100.00
2022-11-09T05:18:58.046Z,100.00
2022-11-09T05:21:25.931Z,100.00
2022-11-09T05:24:02.857Z,100.00
2022-11-09T05:26:33.958Z,100.00
2022-11-09T05:29:03.368Z,100.00
2022-11-09T05:31:32.015Z,100.00
2022-11-09T05:34:00.433Z,100.00
2022-11-09T05:36:30.502Z,100.00
2022-11-09T05:38:59.086Z,100.00
2022-11-09T05:41:27.529Z,100.00
2022-11-09T05:43:56.737Z,100.00
2022-11-09T05:46:25.249Z,100.00
2022-11-09T05:48:53.131Z,100.00
2022-11-09T05:51:20.970Z,100.00
2022-11-09T05:53:48.832Z,100.00
2022-11-09T05:56:16.987Z,100.00
2022-11-09T05:58:44.863Z,100.00
2022-11-09T06:01:15.916Z,100.00
2022-11-09T06:03:44.428Z,100.00
2022-11-09T06:06:14.528Z,100.00
2022-11-09T06:08:42.907Z,100.00
2022-11-09T06:11:16.798Z,100.00
2022-11-09T06:13:46.321Z,100.00
2022-11-09T06:16:16.371Z,100.00
2022-11-09T06:18:44.258Z,100.00
2022-11-09T06:21:12.169Z,100.00
2022-11-09T06:23:40.033Z,100.00
2022-11-09T06:26:10.018Z,100.00
2022-11-09T06:28:38.559Z,100.00
2022-11-09T06:31:08.423Z,100.00
2022-11-09T06:33:37.726Z,100.00
2022-11-09T06:36:06.527Z,100.00
2022-11-09T06:38:34.627Z,100.00
2022-11-09T06:41:02.541Z,100.00
2022-11-09T06:43:30.530Z,100.00
2022-11-09T06:45:58.628Z,100.00
2022-11-09T06:48:26.560Z,100.00
2022-11-09T06:50:56.039Z,100.00
2022-11-09T06:53:24.230Z,100.00
2022-11-09T06:55:52.183Z,100.00
2022-11-09T06:58:20.834Z,100.00
2022-11-09T07:00:48.858Z,100.00
2022-11-09T07:03:18.421Z,100.00
2022-11-09T07:05:47.038Z,100.00
2022-11-09T07:08:17.200Z,100.00
2022-11-09T07:10:45.753Z,100.00
2022-11-09T07:13:13.971Z,100.00
2022-11-09T07:15:41.992Z,100.00
2022-11-09T07:18:12.393Z,100.00
2022-11-09T07:20:40.231Z,100.00
2022-11-09T07:23:08.099Z,100.00
2022-11-09T07:25:37.361Z,100.00
2022-11-09T07:28:05.879Z,100.00
2022-11-09T07:30:33.826Z,99.86
2022-11-09T07:33:09.042Z,99.13
2022-11-09T07:35:38.077Z,98.30
2022-11-09T07:38:06.082Z,97.43
2022-11-09T07:40:34.089Z,93.24
2022-11-09T07:43:04.569Z,95.43
2022-11-09T07:45:34.018Z,91.35
2022-11-09T07:48:04.504Z,88.26
2022-11-09T07:50:33.812Z,90.37
2022-11-09T07:53:02.844Z,88.50
2022-11-09T07:55:32.226Z,88.33
2022-11-09T07:58:01.819Z,86.29
2022-11-09T08:00:33.330Z,87.33
2022-11-09T08:03:01.443Z,85.66
2022-11-09T08:05:37.511Z,83.02
2022-11-09T08:08:07.357Z,81.78
2022-11-09T08:10:36.818Z,81.60
2022-11-09T08:13:07.107Z,81.80
2022-11-09T08:15:38.372Z,82.32
2022-11-09T08:18:08.040Z,82.23
2022-11-09T08:20:36.275Z,81.19
2022-11-09T08:23:05.121Z,80.00
2022-11-09T08:25:34.161Z,78.84
2022-11-09T08:28:03.524Z,77.64
2022-11-09T08:30:32.070Z,77.37
2022-11-09T08:33:03.388Z,77.77
2022-11-09T08:35:31.783Z,77.99
2022-11-09T08:38:02.873Z,77.47
2022-11-09T08:40:31.966Z,76.67
2022-11-09T08:43:04.060Z,77.94
2022-11-09T08:45:33.724Z,76.69
2022-11-09T08:48:04.253Z,76.01
2022-11-09T08:50:33.514Z,77.29
2022-11-09T08:53:02.039Z,76.83
2022-11-09T08:55:31.301Z,77.25
2022-11-09T08:58:01.588Z,76.30
2022-11-09T09:00:29.922Z,73.27
2022-11-09T09:02:58.050Z,73.27
2022-11-09T09:05:27.675Z,73.39
2022-11-09T09:07:55.557Z,73.83
2022-11-09T09:10:23.454Z,72.14
2022-11-09T09:12:51.354Z,71.54
2022-11-09T09:15:19.401Z,69.43
2022-11-09T09:17:47.325Z,70.11
2022-11-09T09:20:16.340Z,70.77
2022-11-09T09:22:45.646Z,69.38
2022-11-09T09:25:13.558Z,69.54
2022-11-09T09:27:41.472Z,69.24
2022-11-09T09:30:10.291Z,68.47
2022-11-09T09:32:38.203Z,69.10
2022-11-09T09:35:07.032Z,69.12
2022-11-09T09:37:34.930Z,67.54
2022-11-09T09:40:04.366Z,68.36
2022-11-09T09:42:35.955Z,68.65
2022-11-09T09:45:06.907Z,68.05
2022-11-09T09:47:47.340Z,66.53
2022-11-09T09:50:19.895Z,66.19
2022-11-09T09:53:22.056Z,64.46
2022-11-09T09:55:47.714Z,65.20
2022-11-09T09:58:21.969Z,66.71
2022-11-09T10:00:56.002Z,65.52
2022-11-09T10:03:23.942Z,64.04
2022-11-09T10:05:59.583Z,63.29
2022-11-09T10:08:38.393Z,63.91
2022-11-09T10:11:17.874Z,63.62
2022-11-09T10:14:02.590Z,63.43
2022-11-09T10:16:39.173Z,63.97
2022-11-09T10:19:36.929Z,62.63
2022-11-09T10:22:12.036Z,60.66
2022-11-09T10:27:44.095Z,60.04
2022-11-09T10:30:16.405Z,60.00
2022-11-09T10:32:46.887Z,59.96
2022-11-09T10:35:21.386Z,58.93
2022-11-09T10:37:51.082Z,59.78
2022-11-09T10:40:24.121Z,59.63
2022-11-09T10:42:56.378Z,59.63
2022-11-09T10:45:31.722Z,59.02
2022-11-09T10:47:59.895Z,58.70
2022-11-09T10:50:33.549Z,58.80
2022-11-09T10:53:19.724Z,59.10
2022-11-09T10:55:53.050Z,58.18
2022-11-09T10:58:27.860Z,58.49
2022-11-09T11:01:02.031Z,58.70
2022-11-09T11:03:30.991Z,57.89
2022-11-09T11:06:00.148Z,57.68
2022-11-09T11:08:40.525Z,58.93
2022-11-09T11:11:35.206Z,58.75
2022-11-09T11:14:22.787Z,58.39
2022-11-09T11:16:53.495Z,59.51
2022-11-09T11:19:36.004Z,58.60
2022-11-09T11:22:23.138Z,59.63
2022-11-09T11:24:58.532Z,59.39
2022-11-09T11:27:33.082Z,59.22
2022-11-09T11:30:11.650Z,58.51
2022-11-09T11:32:39.546Z,58.76
2022-11-09T11:35:14.438Z,58.71
2022-11-09T11:37:50.935Z,60.78
2022-11-09T11:40:26.519Z,60.54
2022-11-09T11:43:29.933Z,60.80
2022-11-09T11:46:10.230Z,60.52
2022-11-09T11:49:07.580Z,59.34
2022-11-09T11:51:46.382Z,58.52
2022-11-09T11:54:24.142Z,58.06
2022-11-09T11:57:02.322Z,57.12
2022-11-09T11:59:55.083Z,57.41
2022-11-09T12:02:54.823Z,58.30
2022-11-09T12:05:39.278Z,58.75
2022-11-09T12:08:16.635Z,58.83
2022-11-09T12:10:53.451Z,58.79
2022-11-09T12:13:44.483Z,59.05
2022-11-09T12:16:20.653Z,58.75
2022-11-09T12:19:01.648Z,56.67
2022-11-09T12:21:37.578Z,55.85
2022-11-09T12:24:26.425Z,56.30
2022-11-09T12:30:09.874Z,56.85
2022-11-09T12:32:45.372Z,58.06
2022-11-09T12:35:30.804Z,57.31
2022-11-09T12:38:04.694Z,56.14
2022-11-09T12:40:35.860Z,55.24
2022-11-09T12:43:15.594Z,55.83
2022-11-09T12:45:45.470Z,55.81
2022-11-09T12:48:26.029Z,56.14
2022-11-09T12:50:55.781Z,55.89
2022-11-09T12:53:26.628Z,55.69
2022-11-09T12:56:00.547Z,56.13
2022-11-09T12:58:30.671Z,56.08
2022-11-09T13:01:00.161Z,55.82
2022-11-09T13:03:30.959Z,55.67
2022-11-09T13:06:23.059Z,56.25
2022-11-09T13:09:01.023Z,57.34
2022-11-09T13:11:38.787Z,57.00
2022-11-09T13:14:38.471Z,56.85
2022-11-09T13:17:39.360Z,57.24
2022-11-09T13:20:54.498Z,56.91
2022-11-09T13:23:54.666Z,58.00
2022-11-09T13:26:26.358Z,58.27
2022-11-09T13:29:25.457Z,58.36
2022-11-09T13:32:33.613Z,58.89
2022-11-09T13:35:02.760Z,59.17
2022-11-09T13:37:38.941Z,59.07
2022-11-09T13:40:51.160Z,59.73
2022-11-09T13:43:23.471Z,60.55
2022-11-09T13:45:54.139Z,60.44
2022-11-09T13:48:34.529Z,60.88
2022-11-09T13:51:05.320Z,61.21
2022-11-09T13:53:52.828Z,61.12
2022-11-09T13:56:27.929Z,61.60
2022-11-09T13:59:03.966Z,61.79
2022-11-09T14:01:37.938Z,62.50
2022-11-09T14:04:06.496Z,62.63
2022-11-09T14:06:34.942Z,62.48
2022-11-09T14:09:04.211Z,62.91
2022-11-09T14:11:51.852Z,62.97
2022-11-09T14:14:52.570Z,63.42
2022-11-09T14:17:29.032Z,63.64
2022-11-09T14:20:11.892Z,64.16
2022-11-09T14:22:41.725Z,64.35
2022-11-09T14:25:16.090Z,64.34
2022-11-09T14:27:51.517Z,64.26
2022-11-09T14:30:23.590Z,65.02
2022-11-09T14:32:54.142Z,65.05
2022-11-09T14:35:28.418Z,65.12
2022-11-09T14:37:57.945Z,65.74
2022-11-09T14:40:28.224Z,66.29
2022-11-09T14:43:00.661Z,67.43
2022-11-09T14:45:30.311Z,67.65
2022-11-09T14:48:00.671Z,67.45
2022-11-09T14:50:31.638Z,67.73
2022-11-09T14:53:01.346Z,67.49
2022-11-09T14:55:29.975Z,67.97
2022-11-09T14:57:58.320Z,68.35
2022-11-09T15:00:31.376Z,68.78
2022-11-09T15:02:59.588Z,69.54
2022-11-09T15:05:36.048Z,70.06
2022-11-09T15:08:03.955Z,70.36
2022-11-09T15:10:32.681Z,70.86
2022-11-09T15:13:04.295Z,71.24
2022-11-09T15:15:36.342Z,71.85
2022-11-09T15:18:04.439Z,72.82
2022-11-09T15:20:34.743Z,73.11
2022-11-09T15:23:04.696Z,73.96
2022-11-09T15:25:35.660Z,74.98
2022-11-09T15:28:21.551Z,75.99
2022-11-09T15:31:12.753Z,77.53
2022-11-09T15:33:47.354Z,78.27
2022-11-09T15:36:28.639Z,78.80
2022-11-09T15:38:59.741Z,79.58
2022-11-09T15:41:28.316Z,80.69
2022-11-09T15:43:56.484Z,81.36
2022-11-09T15:46:27.942Z,82.47
2022-11-09T15:48:58.399Z,83.29
2022-11-09T15:51:26.256Z,84.20
2022-11-09T15:53:54.307Z,84.67
2022-11-09T15:56:23.823Z,85.51
2022-11-09T15:58:53.438Z,86.47
2022-11-09T16:01:21.304Z,87.01
2022-11-09T16:03:50.643Z,87.82
2022-11-09T16:06:22.312Z,88.09
2022-11-09T16:08:51.164Z,88.93
2022-11-09T16:11:19.028Z,88.96
2022-11-09T16:13:46.931Z,89.94
2022-11-09T16:16:16.799Z,90.33
2022-11-09T16:18:44.747Z,90.44
2022-11-09T16:21:16.479Z,91.16
2022-11-09T16:23:44.688Z,92.08
2022-11-09T16:26:15.284Z,93.25
2022-11-09T16:28:44.275Z,93.90
2022-11-09T16:31:13.458Z,94.44
2022-11-09T16:33:41.786Z,95.03
2022-11-09T16:36:13.745Z,95.75
2022-11-09T16:38:45.764Z,96.35
2022-11-09T16:41:15.547Z,96.96
2022-11-09T16:43:45.208Z,97.94
2022-11-09T16:46:14.768Z,98.90
2022-11-09T16:48:42.599Z,100.00
2022-11-09T16:51:10.452Z,100.00
2022-11-09T16:53:38.320Z,100.00
2022-11-09T16:56:08.083Z,100.00
2022-11-09T16:58:36.134Z,100.00
2022-11-09T17:01:12.711Z,100.00
2022-11-09T17:03:41.616Z,100.00
2022-11-09T17:06:11.254Z,100.00
2022-11-09T17:08:39.916Z,100.00
2022-11-09T17:11:11.205Z,100.00
2022-11-09T17:13:39.660Z,100.00
2022-11-09T17:16:09.646Z,100.00
2022-11-09T17:18:38.189Z,100.00
2022-11-09T17:21:11.164Z,100.00
2022-11-09T17:23:39.238Z,100.00
2022-11-09T17:26:09.611Z,100.00
2022-11-09T17:28:42.645Z,100.00
2022-11-09T17:31:13.015Z,100.00
2022-11-09T17:33:40.972Z,100.00
2022-11-09T17:36:11.390Z,100.00
2022-11-09T17:38:40.250Z,100.00
2022-11-09T17:41:11.607Z,100.00
2022-11-09T17:43:41.111Z,100.00
2022-11-09T17:46:10.823Z,100.00
2022-11-09T17:48:40.312Z,100.00
2022-11-09T17:51:08.816Z,100.00
2022-11-09T17:53:36.963Z,100.00
2022-11-09T17:56:05.537Z,100.00
2022-11-09T17:58:34.995Z,100.00
2022-11-09T18:01:07.263Z,100.00
2022-11-09T18:03:36.412Z,100.00
2022-11-09T18:06:04.855Z,100.00
2022-11-09T18:08:32.777Z,100.00
2022-11-09T18:11:00.841Z,100.00
2022-11-09T18:13:28.999Z,100.00
2022-11-09T18:15:58.218Z,100.00
2022-11-09T18:18:26.076Z,100.00
2022-11-09T18:20:54.031Z,100.00
2022-11-09T18:23:21.882Z,100.00
2022-11-09T18:25:57.529Z,100.00
2022-11-09T18:28:25.427Z,100.00
2022-11-09T18:30:53.728Z,100.00
2022-11-09T18:33:23.012Z,100.00
2022-11-09T18:35:57.472Z,100.00
2022-11-09T18:38:29.114Z,100.00
2022-11-09T18:40:59.981Z,100.00
2022-11-09T18:43:28.123Z,100.00
2022-11-09T18:45:57.416Z,100.00
2022-11-09T18:48:27.183Z,100.00
2022-11-09T18:50:56.536Z,100.00
2022-11-09T18:53:28.134Z,100.00
2022-11-09T18:56:06.277Z,100.00
2022-11-09T18:58:35.518Z,100.00
2022-11-09T19:01:05.125Z,100.00
2022-11-09T19:03:34.728Z,100.00
2022-11-09T19:06:06.456Z,100.00
2022-11-09T19:08:52.062Z,100.00
2022-11-09T19:11:20.144Z,100.00
2022-11-09T19:13:48.111Z,100.00
2022-11-09T19:16:16.686Z,100.00
2022-11-09T19:18:46.050Z,100.00
2022-11-09T19:21:34.055Z,100.00
2022-11-09T19:24:02.021Z,100.00
2022-11-09T19:26:29.979Z,100.00
2022-11-09T19:28:57.899Z,100.00
2022-11-09T19:31:26.536Z,100.00
2022-11-09T19:33:55.815Z,100.00
2022-11-09T19:36:30.979Z,100.00
2022-11-09T19:39:00.055Z,100.00
2022-11-09T19:41:27.990Z,100.00
2022-11-09T19:43:58.726Z,100.00
2022-11-09T19:46:27.402Z,100.00
2022-11-09T19:48:56.619Z,100.00
2022-11-09T19:51:24.993Z,100.00
2022-11-09T19:53:54.334Z,100.00
2022-11-09T19:56:23.020Z,100.00
2022-11-09T19:58:52.495Z,100.00
2022-11-09T20:01:21.294Z,100.00
2022-11-09T20:03:50.523Z,100.00
2022-11-09T20:06:20.587Z,100.00
2022-11-09T20:08:48.774Z,100.00
2022-11-09T20:11:32.539Z,100.00
2022-11-09T20:14:00.473Z,100.00
2022-11-09T20:16:28.859Z,100.00
2022-11-09T20:18:56.974Z,100.00
2022-11-09T20:21:26.226Z,100.00
2022-11-09T20:23:54.411Z,100.00
2022-11-09T20:26:22.514Z,100.00
2022-11-09T20:28:50.391Z,100.00
2022-11-09T20:31:20.522Z,100.00
2022-11-09T20:33:48.394Z,100.00
2022-11-09T20:36:18.615Z,100.00
2022-11-09T20:38:48.690Z,100.00
2022-11-09T20:41:18.014Z,100.00
2022-11-09T20:43:48.451Z,100.00
2022-11-09T20:46:18.194Z,100.00
2022-11-09T20:48:54.171Z,100.00
2022-11-09T20:51:24.144Z,100.00
2022-11-09T20:53:53.618Z,100.00
2022-11-09T20:56:22.129Z,100.00
2022-11-09T20:58:50.106Z,100.00
2022-11-09T21:01:19.890Z,100.00
2022-11-09T21:03:48.874Z,100.00
2022-11-09T21:06:16.825Z,100.00
2022-11-09T21:08:46.138Z,100.00
2022-11-09T21:11:15.331Z,100.00
2022-11-09T21:13:44.310Z,100.00
2022-11-09T21:16:13.654Z,100.00
2022-11-09T21:18:41.997Z,100.00
2022-11-09T21:21:12.107Z,100.00
2022-11-09T21:23:58.298Z,100.00
2022-11-09T21:26:45.636Z,100.00
2022-11-09T21:29:32.422Z,100.00
2022-11-09T21:32:00.472Z,100.00
2022-11-09T21:34:32.709Z,100.00
2022-11-09T21:37:03.506Z,100.00
2022-11-09T21:39:31.359Z,100.00
2022-11-09T21:42:00.900Z,100.00
2022-11-09T21:44:30.138Z,100.00
2022-11-09T21:46:58.676Z,100.00
2022-11-09T21:49:26.639Z,100.00
2022-11-09T21:51:54.959Z,100.00
2022-11-09T21:54:23.103Z,100.00
2022-11-09T21:56:52.282Z,100.00
2022-11-09T21:59:21.578Z,100.00
2022-11-09T22:01:49.544Z,100.00
2022-11-09T22:04:17.689Z,100.00
2022-11-09T22:06:45.742Z,100.00
2022-11-09T22:09:16.505Z,100.00
2022-11-09T22:12:02.096Z,100.00
2022-11-09T22:14:48.775Z,100.00
2022-11-09T22:17:16.700Z,100.00
2022-11-09T22:20:01.930Z,100.00
2022-11-09T22:22:31.188Z,100.00
2022-11-09T22:24:59.113Z,100.00
2022-11-09T22:27:27.115Z,100.00
2022-11-09T22:29:56.350Z,100.00
2022-11-09T22:32:24.254Z,100.00
2022-11-09T22:34:52.069Z,100.00
2022-11-09T22:37:19.979Z,100.00
2022-11-09T22:39:47.883Z,100.00
2022-11-09T22:42:15.860Z,100.00
2022-11-09T22:44:43.731Z,100.00
2022-11-09T22:47:13.401Z,100.00
2022-11-09T22:49:41.267Z,100.00
2022-11-09T22:52:09.518Z,100.00
2022-11-09T22:54:39.711Z,100.00
2022-11-09T22:57:07.569Z,100.00
2022-11-09T22:59:35.408Z,100.00
2022-11-09T23:02:03.371Z,100.00
2022-11-09T23:04:32.587Z,100.00
2022-11-09T23:07:00.543Z,100.00
2022-11-09T23:09:28.425Z,100.00
2022-11-09T23:11:56.387Z,100.00
2022-11-09T23:14:44.304Z,100.00
2022-11-09T23:17:26.046Z,100.00
2022-11-09T23:19:55.254Z,100.00
2022-11-09T23:22:23.087Z,100.00
2022-11-09T23:25:08.477Z,100.00
2022-11-09T23:27:36.322Z,100.00
2022-11-09T23:30:04.720Z,100.00
2022-11-09T23:32:32.543Z,100.00
2022-11-09T23:35:01.737Z,100.00
2022-11-09T23:37:29.589Z,100.00
2022-11-09T23:39:57.412Z,100.00
2022-11-09T23:42:25.241Z,100.00
2022-11-09T23:44:53.096Z,100.00
2022-11-09T23:47:21.118Z,100.00
2022-11-09T23:49:49.010Z,100.00
2022-11-09T23:52:18.228Z,100.00
2022-11-09T23:54:46.200Z,100.00
2022-11-09T23:57:14.175Z,100.00
2022-11-09T23:59:42.052Z,100.00
